sensor_id;sensor_type;location;lat;lon;timestamp;P1;durP1;ratioP1;P2;durP2;ratioP2
65613;SDS011;52283;49.292;10.572;2023-06-19T00:00:41;8.20;;;5.65;;
65613;SDS011;52283;49.292;10.572;2023-06-19T00:03:07;5.95;;;4.65;;
65613;SDS011;52283;49.292;10.572;2023-06-19T00:05:34;6.47;;;5.47;;
65613;SDS011;52283;49.292;10.572;2023-06-19T00:08:00;7.90;;;5.18;;
65613;SDS011;52283;49.292;10.572;2023-06-19T00:10:28;6.72;;;5.10;;
65613;SDS011;52283;49.292;10.572;2023-06-19T00:12:55;6.72;;;5.35;;
65613;SDS011;52283;49.292;10.572;2023-06-19T00:15:22;7.35;;;5.22;;
65613;SDS011;52283;49.292;10.572;2023-06-19T00:17:49;5.97;;;5.38;;
65613;SDS011;52283;49.292;10.572;2023-06-19T00:20:15;5.43;;;4.88;;
65613;SDS011;52283;49.292;10.572;2023-06-19T00:22:43;7.90;;;4.82;;
65613;SDS011;52283;49.292;10.572;2023-06-19T00:25:09;6.28;;;4.78;;
65613;SDS011;52283;49.292;10.572;2023-06-19T00:27:35;8.63;;;5.55;;
65613;SDS011;52283;49.292;10.572;2023-06-19T00:30:02;7.43;;;5.45;;
65613;SDS011;52283;49.292;10.572;2023-06-19T00:32:32;8.32;;;5.00;;
65613;SDS011;52283;49.292;10.572;2023-06-19T00:35:11;6.20;;;5.45;;
65613;SDS011;52283;49.292;10.572;2023-06-19T00:37:37;6.15;;;4.95;;
65613;SDS011;52283;49.292;10.572;2023-06-19T00:40:04;5.85;;;4.45;;
65613;SDS011;52283;49.292;10.572;2023-06-19T00:42:33;5.82;;;5.22;;
65613;SDS011;52283;49.292;10.572;2023-06-19T00:45:00;5.55;;;4.85;;
65613;SDS011;52283;49.292;10.572;2023-06-19T00:47:26;5.60;;;4.97;;
65613;SDS011;52283;49.292;10.572;2023-06-19T00:49:54;6.35;;;5.07;;
65613;SDS011;52283;49.292;10.572;2023-06-19T00:52:20;5.65;;;5.03;;
65613;SDS011;52283;49.292;10.572;2023-06-19T00:54:47;6.57;;;4.55;;
65613;SDS011;52283;49.292;10.572;2023-06-19T00:57:13;7.88;;;5.57;;
65613;SDS011;52283;49.292;10.572;2023-06-19T00:59:40;7.80;;;5.55;;
65613;SDS011;52283;49.292;10.572;2023-06-19T01:02:06;6.45;;;4.80;;
65613;SDS011;52283;49.292;10.572;2023-06-19T01:04:33;6.00;;;5.32;;
65613;SDS011;52283;49.292;10.572;2023-06-19T01:07:02;6.13;;;5.53;;
65613;SDS011;52283;49.292;10.572;2023-06-19T01:09:36;6.78;;;4.45;;
65613;SDS011;52283;49.292;10.572;2023-06-19T01:12:08;7.53;;;5.40;;
65613;SDS011;52283;49.292;10.572;2023-06-19T01:14:39;6.22;;;4.97;;
65613;SDS011;52283;49.292;10.572;2023-06-19T01:17:12;5.07;;;4.65;;
65613;SDS011;52283;49.292;10.572;2023-06-19T01:19:39;5.70;;;5.20;;
65613;SDS011;52283;49.292;10.572;2023-06-19T01:22:07;8.23;;;5.28;;
65613;SDS011;52283;49.292;10.572;2023-06-19T01:24:33;7.22;;;5.22;;
65613;SDS011;52283;49.292;10.572;2023-06-19T01:27:00;5.68;;;5.07;;
65613;SDS011;52283;49.292;10.572;2023-06-19T01:29:26;6.35;;;5.53;;
65613;SDS011;52283;49.292;10.572;2023-06-19T01:31:54;6.57;;;4.93;;
65613;SDS011;52283;49.292;10.572;2023-06-19T01:34:26;5.20;;;4.70;;
65613;SDS011;52283;49.292;10.572;2023-06-19T01:36:55;6.28;;;5.15;;
65613;SDS011;52283;49.292;10.572;2023-06-19T01:39:24;6.43;;;5.15;;
65613;SDS011;52283;49.292;10.572;2023-06-19T01:41:51;7.95;;;4.95;;
65613;SDS011;52283;49.292;10.572;2023-06-19T01:44:20;5.35;;;4.82;;
65613;SDS011;52283;49.292;10.572;2023-06-19T01:46:47;7.47;;;5.32;;
65613;SDS011;52283;49.292;10.572;2023-06-19T01:49:14;5.68;;;4.88;;
65613;SDS011;52283;49.292;10.572;2023-06-19T01:51:40;6.68;;;5.40;;
65613;SDS011;52283;49.292;10.572;2023-06-19T01:54:07;6.78;;;5.63;;
65613;SDS011;52283;49.292;10.572;2023-06-19T01:56:35;7.85;;;5.70;;
65613;SDS011;52283;49.292;10.572;2023-06-19T01:59:01;7.38;;;5.55;;
65613;SDS011;52283;49.292;10.572;2023-06-19T02:01:28;5.97;;;5.38;;
65613;SDS011;52283;49.292;10.572;2023-06-19T02:03:55;7.13;;;5.55;;
65613;SDS011;52283;49.292;10.572;2023-06-19T02:06:21;6.55;;;5.45;;
65613;SDS011;52283;49.292;10.572;2023-06-19T02:08:48;6.75;;;5.60;;
65613;SDS011;52283;49.292;10.572;2023-06-19T02:11:15;7.22;;;5.53;;
65613;SDS011;52283;49.292;10.572;2023-06-19T02:13:42;6.30;;;5.30;;
65613;SDS011;52283;49.292;10.572;2023-06-19T02:16:09;7.30;;;5.47;;
65613;SDS011;52283;49.292;10.572;2023-06-19T02:18:35;7.15;;;5.70;;
65613;SDS011;52283;49.292;10.572;2023-06-19T02:21:02;8.48;;;6.03;;
65613;SDS011;52283;49.292;10.572;2023-06-19T02:23:28;6.90;;;6.03;;
65613;SDS011;52283;49.292;10.572;2023-06-19T02:25:55;7.55;;;5.75;;
65613;SDS011;52283;49.292;10.572;2023-06-19T02:28:21;7.40;;;6.43;;
65613;SDS011;52283;49.292;10.572;2023-06-19T02:30:49;9.15;;;5.97;;
65613;SDS011;52283;49.292;10.572;2023-06-19T02:33:15;6.95;;;5.90;;
65613;SDS011;52283;49.292;10.572;2023-06-19T02:35:42;7.95;;;6.15;;
65613;SDS011;52283;49.292;10.572;2023-06-19T02:38:09;7.35;;;5.88;;
65613;SDS011;52283;49.292;10.572;2023-06-19T02:40:36;7.28;;;6.57;;
65613;SDS011;52283;49.292;10.572;2023-06-19T02:43:03;7.50;;;6.18;;
65613;SDS011;52283;49.292;10.572;2023-06-19T02:45:29;6.88;;;6.28;;
65613;SDS011;52283;49.292;10.572;2023-06-19T02:47:57;9.07;;;6.75;;
65613;SDS011;52283;49.292;10.572;2023-06-19T02:50:23;7.70;;;6.65;;
65613;SDS011;52283;49.292;10.572;2023-06-19T02:52:50;6.38;;;5.82;;
65613;SDS011;52283;49.292;10.572;2023-06-19T02:55:16;7.53;;;6.82;;
65613;SDS011;52283;49.292;10.572;2023-06-19T02:57:43;8.25;;;6.40;;
65613;SDS011;52283;49.292;10.572;2023-06-19T03:00:10;10.18;;;6.15;;
65613;SDS011;52283;49.292;10.572;2023-06-19T03:02:37;8.27;;;7.28;;
65613;SDS011;52283;49.292;10.572;2023-06-19T03:05:08;7.60;;;6.05;;
65613;SDS011;52283;49.292;10.572;2023-06-19T03:07:35;12.00;;;7.07;;
65613;SDS011;52283;49.292;10.572;2023-06-19T03:10:01;7.50;;;6.05;;
65613;SDS011;52283;49.292;10.572;2023-06-19T03:12:28;7.40;;;6.60;;
65613;SDS011;52283;49.292;10.572;2023-06-19T03:14:55;7.20;;;6.45;;
65613;SDS011;52283;49.292;10.572;2023-06-19T03:17:21;8.60;;;6.22;;
65613;SDS011;52283;49.292;10.572;2023-06-19T03:19:48;9.90;;;6.93;;
65613;SDS011;52283;49.292;10.572;2023-06-19T03:22:15;7.75;;;6.40;;
65613;SDS011;52283;49.292;10.572;2023-06-19T03:24:43;7.93;;;6.90;;
65613;SDS011;52283;49.292;10.572;2023-06-19T03:27:10;8.73;;;6.80;;
65613;SDS011;52283;49.292;10.572;2023-06-19T03:29:36;10.75;;;6.88;;
65613;SDS011;52283;49.292;10.572;2023-06-19T03:32:03;6.70;;;6.05;;
65613;SDS011;52283;49.292;10.572;2023-06-19T03:34:30;8.50;;;7.45;;
65613;SDS011;52283;49.292;10.572;2023-06-19T03:36:56;7.43;;;6.72;;
65613;SDS011;52283;49.292;10.572;2023-06-19T03:39:24;7.55;;;6.57;;
65613;SDS011;52283;49.292;10.572;2023-06-19T03:41:51;12.40;;;7.43;;
65613;SDS011;52283;49.292;10.572;2023-06-19T03:44:17;7.90;;;7.10;;
65613;SDS011;52283;49.292;10.572;2023-06-19T03:46:43;7.45;;;6.70;;
65613;SDS011;52283;49.292;10.572;2023-06-19T03:49:11;7.43;;;6.32;;
65613;SDS011;52283;49.292;10.572;2023-06-19T03:51:38;7.57;;;6.22;;
65613;SDS011;52283;49.292;10.572;2023-06-19T03:54:04;7.05;;;5.35;;
65613;SDS011;52283;49.292;10.572;2023-06-19T03:56:32;7.00;;;5.72;;
65613;SDS011;52283;49.292;10.572;2023-06-19T03:58:59;7.35;;;5.80;;
65613;SDS011;52283;49.292;10.572;2023-06-19T04:01:25;6.88;;;6.15;;
65613;SDS011;52283;49.292;10.572;2023-06-19T04:03:52;7.35;;;5.63;;
65613;SDS011;52283;49.292;10.572;2023-06-19T04:06:18;9.07;;;5.90;;
65613;SDS011;52283;49.292;10.572;2023-06-19T04:08:45;8.75;;;5.78;;
65613;SDS011;52283;49.292;10.572;2023-06-19T04:11:11;8.20;;;5.50;;
65613;SDS011;52283;49.292;10.572;2023-06-19T04:13:40;7.95;;;6.65;;
65613;SDS011;52283;49.292;10.572;2023-06-19T04:16:06;8.40;;;6.05;;
65613;SDS011;52283;49.292;10.572;2023-06-19T04:18:33;6.25;;;5.65;;
65613;SDS011;52283;49.292;10.572;2023-06-19T04:21:00;5.88;;;5.28;;
65613;SDS011;52283;49.292;10.572;2023-06-19T04:23:26;9.75;;;6.03;;
65613;SDS011;52283;49.292;10.572;2023-06-19T04:25:53;9.10;;;5.88;;
65613;SDS011;52283;49.292;10.572;2023-06-19T04:28:19;8.70;;;5.72;;
65613;SDS011;52283;49.292;10.572;2023-06-19T04:30:47;6.47;;;4.88;;
65613;SDS011;52283;49.292;10.572;2023-06-19T04:33:14;6.80;;;5.85;;
65613;SDS011;52283;49.292;10.572;2023-06-19T04:35:40;6.53;;;5.55;;
65613;SDS011;52283;49.292;10.572;2023-06-19T04:38:07;14.98;;;5.47;;
65613;SDS011;52283;49.292;10.572;2023-06-19T04:40:34;9.27;;;5.28;;
65613;SDS011;52283;49.292;10.572;2023-06-19T04:43:01;9.48;;;4.85;;
65613;SDS011;52283;49.292;10.572;2023-06-19T04:45:30;6.53;;;4.73;;
65613;SDS011;52283;49.292;10.572;2023-06-19T04:47:58;7.22;;;4.78;;
65613;SDS011;52283;49.292;10.572;2023-06-19T04:50:28;6.97;;;5.00;;
65613;SDS011;52283;49.292;10.572;2023-06-19T04:52:54;6.10;;;5.50;;
65613;SDS011;52283;49.292;10.572;2023-06-19T04:55:21;5.53;;;4.75;;
65613;SDS011;52283;49.292;10.572;2023-06-19T04:57:50;8.50;;;4.53;;
65613;SDS011;52283;49.292;10.572;2023-06-19T05:00:17;5.88;;;3.97;;
65613;SDS011;52283;49.292;10.572;2023-06-19T05:02:45;4.25;;;3.85;;
65613;SDS011;52283;49.292;10.572;2023-06-19T05:05:13;5.43;;;3.92;;
65613;SDS011;52283;49.292;10.572;2023-06-19T05:07:40;5.95;;;4.05;;
65613;SDS011;52283;49.292;10.572;2023-06-19T05:10:07;6.05;;;4.45;;
65613;SDS011;52283;49.292;10.572;2023-06-19T05:12:35;5.45;;;3.75;;
65613;SDS011;52283;49.292;10.572;2023-06-19T05:15:02;3.80;;;3.50;;
65613;SDS011;52283;49.292;10.572;2023-06-19T05:17:29;3.60;;;3.30;;
65613;SDS011;52283;49.292;10.572;2023-06-19T05:19:55;5.10;;;4.10;;
65613;SDS011;52283;49.292;10.572;2023-06-19T05:22:23;6.55;;;3.38;;
65613;SDS011;52283;49.292;10.572;2023-06-19T05:24:51;3.58;;;3.28;;
65613;SDS011;52283;49.292;10.572;2023-06-19T05:27:18;4.05;;;3.63;;
65613;SDS011;52283;49.292;10.572;2023-06-19T05:29:44;4.53;;;3.30;;
65613;SDS011;52283;49.292;10.572;2023-06-19T05:32:11;4.63;;;2.78;;
65613;SDS011;52283;49.292;10.572;2023-06-19T05:34:37;3.00;;;2.80;;
65613;SDS011;52283;49.292;10.572;2023-06-19T05:37:04;4.50;;;3.47;;
65613;SDS011;52283;49.292;10.572;2023-06-19T05:39:32;5.18;;;3.35;;
65613;SDS011;52283;49.292;10.572;2023-06-19T05:41:58;4.60;;;3.13;;
65613;SDS011;52283;49.292;10.572;2023-06-19T05:44:25;6.82;;;3.40;;
65613;SDS011;52283;49.292;10.572;2023-06-19T05:46:51;3.88;;;3.25;;
65613;SDS011;52283;49.292;10.572;2023-06-19T05:49:17;4.07;;;3.60;;
65613;SDS011;52283;49.292;10.572;2023-06-19T05:51:44;4.30;;;3.53;;
65613;SDS011;52283;49.292;10.572;2023-06-19T05:54:10;8.07;;;3.10;;
65613;SDS011;52283;49.292;10.572;2023-06-19T05:56:38;4.68;;;3.05;;
65613;SDS011;52283;49.292;10.572;2023-06-19T05:59:05;4.18;;;3.13;;
65613;SDS011;52283;49.292;10.572;2023-06-19T06:01:31;4.20;;;3.22;;
65613;SDS011;52283;49.292;10.572;2023-06-19T06:04:04;6.43;;;3.08;;
65613;SDS011;52283;49.292;10.572;2023-06-19T06:06:30;4.00;;;3.30;;
65613;SDS011;52283;49.292;10.572;2023-06-19T06:08:56;4.97;;;3.13;;
65613;SDS011;52283;49.292;10.572;2023-06-19T06:11:23;3.38;;;2.92;;
65613;SDS011;52283;49.292;10.572;2023-06-19T06:13:51;3.35;;;3.05;;
65613;SDS011;52283;49.292;10.572;2023-06-19T06:16:17;3.72;;;3.28;;
65613;SDS011;52283;49.292;10.572;2023-06-19T06:18:44;9.68;;;3.05;;
65613;SDS011;52283;49.292;10.572;2023-06-19T06:21:11;3.05;;;2.83;;
65613;SDS011;52283;49.292;10.572;2023-06-19T06:23:38;5.05;;;3.40;;
65613;SDS011;52283;49.292;10.572;2023-06-19T06:26:04;3.60;;;3.00;;
65613;SDS011;52283;49.292;10.572;2023-06-19T06:28:30;4.03;;;2.80;;
65613;SDS011;52283;49.292;10.572;2023-06-19T06:30:59;5.45;;;3.15;;
65613;SDS011;52283;49.292;10.572;2023-06-19T06:33:25;3.92;;;2.55;;
65613;SDS011;52283;49.292;10.572;2023-06-19T06:35:54;4.63;;;3.00;;
65613;SDS011;52283;49.292;10.572;2023-06-19T06:38:21;4.93;;;2.80;;
65613;SDS011;52283;49.292;10.572;2023-06-19T06:40:48;6.00;;;2.92;;
65613;SDS011;52283;49.292;10.572;2023-06-19T06:43:15;4.78;;;3.03;;
65613;SDS011;52283;49.292;10.572;2023-06-19T06:45:42;4.22;;;2.30;;
65613;SDS011;52283;49.292;10.572;2023-06-19T06:48:09;5.82;;;3.40;;
65613;SDS011;52283;49.292;10.572;2023-06-19T06:50:36;3.20;;;2.95;;
65613;SDS011;52283;49.292;10.572;2023-06-19T06:53:02;3.13;;;2.92;;
65613;SDS011;52283;49.292;10.572;2023-06-19T06:55:29;2.85;;;2.55;;
65613;SDS011;52283;49.292;10.572;2023-06-19T06:57:55;3.00;;;2.70;;
65613;SDS011;52283;49.292;10.572;2023-06-19T07:00:22;2.70;;;2.33;;
65613;SDS011;52283;49.292;10.572;2023-06-19T07:02:48;2.53;;;2.33;;
65613;SDS011;52283;49.292;10.572;2023-06-19T07:05:17;2.97;;;2.78;;
65613;SDS011;52283;49.292;10.572;2023-06-19T07:07:43;3.22;;;3.00;;
65613;SDS011;52283;49.292;10.572;2023-06-19T07:10:10;3.38;;;2.33;;
65613;SDS011;52283;49.292;10.572;2023-06-19T07:12:43;4.45;;;2.25;;
65613;SDS011;52283;49.292;10.572;2023-06-19T07:15:10;5.07;;;2.53;;
65613;SDS011;52283;49.292;10.572;2023-06-19T07:17:37;4.30;;;2.47;;
65613;SDS011;52283;49.292;10.572;2023-06-19T07:20:04;4.80;;;3.28;;
65613;SDS011;52283;49.292;10.572;2023-06-19T07:22:33;2.83;;;2.45;;
65613;SDS011;52283;49.292;10.572;2023-06-19T07:24:59;2.58;;;2.38;;
65613;SDS011;52283;49.292;10.572;2023-06-19T07:27:26;5.22;;;2.20;;
65613;SDS011;52283;49.292;10.572;2023-06-19T07:29:53;2.55;;;2.35;;
65613;SDS011;52283;49.292;10.572;2023-06-19T07:32:20;2.72;;;2.50;;
65613;SDS011;52283;49.292;10.572;2023-06-19T07:34:46;3.67;;;2.38;;
65613;SDS011;52283;49.292;10.572;2023-06-19T07:37:13;5.10;;;2.13;;
65613;SDS011;52283;49.292;10.572;2023-06-19T07:39:44;3.95;;;2.35;;
65613;SDS011;52283;49.292;10.572;2023-06-19T07:42:10;2.70;;;2.53;;
65613;SDS011;52283;49.292;10.572;2023-06-19T07:44:37;2.45;;;2.05;;
65613;SDS011;52283;49.292;10.572;2023-06-19T07:47:03;2.60;;;2.40;;
65613;SDS011;52283;49.292;10.572;2023-06-19T07:49:30;1.83;;;1.73;;
65613;SDS011;52283;49.292;10.572;2023-06-19T07:51:56;3.35;;;2.05;;
65613;SDS011;52283;49.292;10.572;2023-06-19T07:54:23;1.98;;;1.80;;
65613;SDS011;52283;49.292;10.572;2023-06-19T07:56:51;2.80;;;1.92;;
65613;SDS011;52283;49.292;10.572;2023-06-19T07:59:17;2.42;;;2.33;;
65613;SDS011;52283;49.292;10.572;2023-06-19T08:01:44;3.25;;;2.30;;
65613;SDS011;52283;49.292;10.572;2023-06-19T08:04:10;2.45;;;2.00;;
65613;SDS011;52283;49.292;10.572;2023-06-19T08:06:37;2.22;;;2.13;;
65613;SDS011;52283;49.292;10.572;2023-06-19T08:09:03;2.20;;;1.83;;
65613;SDS011;52283;49.292;10.572;2023-06-19T08:11:30;1.75;;;1.65;;
65613;SDS011;52283;49.292;10.572;2023-06-19T08:13:58;1.70;;;1.60;;
65613;SDS011;52283;49.292;10.572;2023-06-19T08:16:24;2.65;;;1.60;;
65613;SDS011;52283;49.292;10.572;2023-06-19T08:24:10;3.53;;;2.25;;
65613;SDS011;52283;49.292;10.572;2023-06-19T08:26:37;4.35;;;1.85;;
65613;SDS011;52283;49.292;10.572;2023-06-19T08:29:05;2.40;;;1.60;;
65613;SDS011;52283;49.292;10.572;2023-06-19T08:31:32;3.35;;;1.80;;
65613;SDS011;52283;49.292;10.572;2023-06-19T08:34:01;2.08;;;1.98;;
65613;SDS011;52283;49.292;10.572;2023-06-19T08:36:32;2.72;;;1.65;;
65613;SDS011;52283;49.292;10.572;2023-06-19T08:39:03;3.80;;;1.60;;
65613;SDS011;52283;49.292;10.572;2023-06-19T08:41:33;2.33;;;1.70;;
65613;SDS011;52283;49.292;10.572;2023-06-19T08:43:59;4.00;;;1.80;;
65613;SDS011;52283;49.292;10.572;2023-06-19T08:46:29;2.80;;;1.42;;
65613;SDS011;52283;49.292;10.572;2023-06-19T08:48:56;1.75;;;1.65;;
65613;SDS011;52283;49.292;10.572;2023-06-19T08:51:22;2.10;;;2.00;;
65613;SDS011;52283;49.292;10.572;2023-06-19T08:53:53;1.88;;;1.70;;
65613;SDS011;52283;49.292;10.572;2023-06-19T08:56:21;2.53;;;1.73;;
65613;SDS011;52283;49.292;10.572;2023-06-19T08:58:47;1.88;;;1.77;;
65613;SDS011;52283;49.292;10.572;2023-06-19T09:01:16;3.67;;;1.90;;
65613;SDS011;52283;49.292;10.572;2023-06-19T09:03:45;2.53;;;1.97;;
65613;SDS011;52283;49.292;10.572;2023-06-19T09:06:17;3.13;;;2.20;;
65613;SDS011;52283;49.292;10.572;2023-06-19T09:08:43;6.43;;;2.53;;
65613;SDS011;52283;49.292;10.572;2023-06-19T09:11:10;2.78;;;2.58;;
65613;SDS011;52283;49.292;10.572;2023-06-19T09:13:37;2.78;;;2.08;;
65613;SDS011;52283;49.292;10.572;2023-06-19T09:16:04;3.78;;;2.25;;
65613;SDS011;52283;49.292;10.572;2023-06-19T09:18:42;2.25;;;2.15;;
65613;SDS011;52283;49.292;10.572;2023-06-19T09:21:15;3.22;;;2.28;;
65613;SDS011;52283;49.292;10.572;2023-06-19T09:23:47;3.47;;;2.33;;
65613;SDS011;52283;49.292;10.572;2023-06-19T09:26:15;4.47;;;2.35;;
65613;SDS011;52283;49.292;10.572;2023-06-19T09:28:43;3.83;;;2.42;;
65613;SDS011;52283;49.292;10.572;2023-06-19T09:31:09;6.35;;;2.40;;
65613;SDS011;52283;49.292;10.572;2023-06-19T09:33:37;3.28;;;2.60;;
65613;SDS011;52283;49.292;10.572;2023-06-19T09:36:05;3.40;;;2.90;;
65613;SDS011;52283;49.292;10.572;2023-06-19T09:38:34;3.72;;;3.42;;
65613;SDS011;52283;49.292;10.572;2023-06-19T09:41:03;3.10;;;2.80;;
65613;SDS011;52283;49.292;10.572;2023-06-19T09:43:33;13.88;;;4.10;;
65613;SDS011;52283;49.292;10.572;2023-06-19T09:46:02;6.40;;;3.83;;
65613;SDS011;52283;49.292;10.572;2023-06-19T09:48:30;5.05;;;3.67;;
65613;SDS011;52283;49.292;10.572;2023-06-19T09:51:00;4.03;;;3.67;;
65613;SDS011;52283;49.292;10.572;2023-06-19T09:53:30;3.97;;;3.63;;
65613;SDS011;52283;49.292;10.572;2023-06-19T09:55:58;4.47;;;4.00;;
65613;SDS011;52283;49.292;10.572;2023-06-19T09:58:24;4.13;;;3.80;;
65613;SDS011;52283;49.292;10.572;2023-06-19T10:00:53;4.45;;;4.10;;
65613;SDS011;52283;49.292;10.572;2023-06-19T10:03:21;4.85;;;4.07;;
65613;SDS011;52283;49.292;10.572;2023-06-19T10:05:57;4.32;;;3.92;;
65613;SDS011;52283;49.292;10.572;2023-06-19T10:08:28;4.13;;;3.78;;
65613;SDS011;52283;49.292;10.572;2023-06-19T10:10:56;5.30;;;3.63;;
65613;SDS011;52283;49.292;10.572;2023-06-19T10:13:30;5.07;;;4.13;;
65613;SDS011;52283;49.292;10.572;2023-06-19T10:15:57;4.10;;;3.70;;
65613;SDS011;52283;49.292;10.572;2023-06-19T10:18:24;4.35;;;4.05;;
65613;SDS011;52283;49.292;10.572;2023-06-19T10:20:52;4.47;;;4.13;;
65613;SDS011;52283;49.292;10.572;2023-06-19T10:23:20;3.83;;;3.40;;
65613;SDS011;52283;49.292;10.572;2023-06-19T10:25:54;5.28;;;3.60;;
65613;SDS011;52283;49.292;10.572;2023-06-19T10:28:22;3.67;;;3.47;;
65613;SDS011;52283;49.292;10.572;2023-06-19T10:30:52;3.38;;;3.17;;
65613;SDS011;52283;49.292;10.572;2023-06-19T10:33:19;4.18;;;3.72;;
65613;SDS011;52283;49.292;10.572;2023-06-19T10:35:46;3.72;;;3.42;;
65613;SDS011;52283;49.292;10.572;2023-06-19T10:38:14;3.88;;;3.58;;
65613;SDS011;52283;49.292;10.572;2023-06-19T10:40:41;2.55;;;2.42;;
65613;SDS011;52283;49.292;10.572;2023-06-19T10:43:07;3.75;;;3.00;;
65613;SDS011;52283;49.292;10.572;2023-06-19T10:45:35;3.17;;;2.83;;
65613;SDS011;52283;49.292;10.572;2023-06-19T10:48:02;3.42;;;3.08;;
65613;SDS011;52283;49.292;10.572;2023-06-19T10:50:29;3.28;;;3.08;;
65613;SDS011;52283;49.292;10.572;2023-06-19T10:52:59;4.50;;;2.92;;
65613;SDS011;52283;49.292;10.572;2023-06-19T10:55:26;3.03;;;2.83;;
65613;SDS011;52283;49.292;10.572;2023-06-19T10:57:53;3.38;;;3.17;;
65613;SDS011;52283;49.292;10.572;2023-06-19T11:00:22;2.88;;;2.67;;
65613;SDS011;52283;49.292;10.572;2023-06-19T11:02:52;3.00;;;2.78;;
65613;SDS011;52283;49.292;10.572;2023-06-19T11:05:19;3.42;;;3.17;;
65613;SDS011;52283;49.292;10.572;2023-06-19T11:07:50;3.22;;;2.92;;
65613;SDS011;52283;49.292;10.572;2023-06-19T11:10:18;2.63;;;2.53;;
65613;SDS011;52283;49.292;10.572;2023-06-19T11:12:47;3.08;;;2.78;;
65613;SDS011;52283;49.292;10.572;2023-06-19T11:15:14;6.03;;;2.95;;
65613;SDS011;52283;49.292;10.572;2023-06-19T11:17:40;4.05;;;2.88;;
65613;SDS011;52283;49.292;10.572;2023-06-19T11:20:10;3.95;;;2.80;;
65613;SDS011;52283;49.292;10.572;2023-06-19T11:25:06;3.53;;;3.22;;
65613;SDS011;52283;49.292;10.572;2023-06-19T11:27:34;3.22;;;2.72;;
65613;SDS011;52283;49.292;10.572;2023-06-19T11:30:04;3.17;;;3.03;;
65613;SDS011;52283;49.292;10.572;2023-06-19T11:32:33;3.20;;;3.00;;
65613;SDS011;52283;49.292;10.572;2023-06-19T11:35:05;3.22;;;2.92;;
65613;SDS011;52283;49.292;10.572;2023-06-19T11:37:35;3.47;;;3.28;;
65613;SDS011;52283;49.292;10.572;2023-06-19T11:40:02;3.70;;;3.40;;
65613;SDS011;52283;49.292;10.572;2023-06-19T11:42:43;3.72;;;3.42;;
65613;SDS011;52283;49.292;10.572;2023-06-19T11:45:11;3.40;;;2.95;;
65613;SDS011;52283;49.292;10.572;2023-06-19T11:47:37;3.80;;;3.13;;
65613;SDS011;52283;49.292;10.572;2023-06-19T11:50:04;5.90;;;3.75;;
65613;SDS011;52283;49.292;10.572;2023-06-19T11:52:31;4.18;;;3.30;;
65613;SDS011;52283;49.292;10.572;2023-06-19T11:54:59;3.88;;;3.58;;
65613;SDS011;52283;49.292;10.572;2023-06-19T11:57:26;3.67;;;3.38;;
65613;SDS011;52283;49.292;10.572;2023-06-19T11:59:53;3.08;;;2.88;;
65613;SDS011;52283;49.292;10.572;2023-06-19T12:02:19;4.25;;;3.28;;
65613;SDS011;52283;49.292;10.572;2023-06-19T12:04:47;3.63;;;3.38;;
65613;SDS011;52283;49.292;10.572;2023-06-19T12:07:13;3.40;;;3.08;;
65613;SDS011;52283;49.292;10.572;2023-06-19T12:09:40;3.83;;;3.53;;
65613;SDS011;52283;49.292;10.572;2023-06-19T12:12:09;4.35;;;3.97;;
65613;SDS011;52283;49.292;10.572;2023-06-19T12:14:36;3.45;;;3.20;;
65613;SDS011;52283;49.292;10.572;2023-06-19T12:17:04;3.58;;;3.38;;
65613;SDS011;52283;49.292;10.572;2023-06-19T12:19:31;4.18;;;3.78;;
65613;SDS011;52283;49.292;10.572;2023-06-19T12:21:57;3.70;;;3.33;;
65613;SDS011;52283;49.292;10.572;2023-06-19T12:24:24;3.83;;;3.42;;
65613;SDS011;52283;49.292;10.572;2023-06-19T12:26:50;3.92;;;3.63;;
65613;SDS011;52283;49.292;10.572;2023-06-19T12:29:18;4.50;;;2.95;;
65613;SDS011;52283;49.292;10.572;2023-06-19T12:31:45;2.92;;;2.75;;
65613;SDS011;52283;49.292;10.572;2023-06-19T12:34:12;3.00;;;2.70;;
65613;SDS011;52283;49.292;10.572;2023-06-19T12:36:38;3.65;;;3.35;;
65613;SDS011;52283;49.292;10.572;2023-06-19T12:39:05;3.42;;;2.53;;
65613;SDS011;52283;49.292;10.572;2023-06-19T12:41:39;3.33;;;3.13;;
65613;SDS011;52283;49.292;10.572;2023-06-19T12:44:06;3.22;;;3.03;;
65613;SDS011;52283;49.292;10.572;2023-06-19T12:46:33;3.53;;;3.33;;
65613;SDS011;52283;49.292;10.572;2023-06-19T12:49:00;3.70;;;3.47;;
65613;SDS011;52283;49.292;10.572;2023-06-19T12:51:26;3.30;;;3.10;;
65613;SDS011;52283;49.292;10.572;2023-06-19T12:53:53;2.67;;;2.47;;
65613;SDS011;52283;49.292;10.572;2023-06-19T12:56:19;3.83;;;3.20;;
65613;SDS011;52283;49.292;10.572;2023-06-19T12:58:47;3.20;;;2.90;;
65613;SDS011;52283;49.292;10.572;2023-06-19T13:01:13;4.68;;;3.40;;
65613;SDS011;52283;49.292;10.572;2023-06-19T13:03:41;2.65;;;2.45;;
65613;SDS011;52283;49.292;10.572;2023-06-19T13:06:08;3.20;;;3.00;;
65613;SDS011;52283;49.292;10.572;2023-06-19T13:08:34;3.22;;;3.03;;
65613;SDS011;52283;49.292;10.572;2023-06-19T13:11:00;3.60;;;3.05;;
65613;SDS011;52283;49.292;10.572;2023-06-19T13:13:27;3.47;;;3.20;;
65613;SDS011;52283;49.292;10.572;2023-06-19T13:15:53;4.05;;;2.97;;
65613;SDS011;52283;49.292;10.572;2023-06-19T13:18:20;2.90;;;2.15;;
65613;SDS011;52283;49.292;10.572;2023-06-19T13:20:48;3.95;;;2.67;;
65613;SDS011;52283;49.292;10.572;2023-06-19T13:23:14;3.70;;;3.40;;
65613;SDS011;52283;49.292;10.572;2023-06-19T13:25:41;2.42;;;2.33;;
65613;SDS011;52283;49.292;10.572;2023-06-19T13:28:07;2.53;;;2.40;;
65613;SDS011;52283;49.292;10.572;2023-06-19T13:30:34;6.55;;;2.97;;
65613;SDS011;52283;49.292;10.572;2023-06-19T13:33:00;2.58;;;2.38;;
65613;SDS011;52283;49.292;10.572;2023-06-19T13:35:27;2.72;;;2.30;;
65613;SDS011;52283;49.292;10.572;2023-06-19T13:37:56;2.53;;;2.30;;
65613;SDS011;52283;49.292;10.572;2023-06-19T13:40:24;2.88;;;2.58;;
65613;SDS011;52283;49.292;10.572;2023-06-19T13:42:51;2.60;;;2.40;;
65613;SDS011;52283;49.292;10.572;2023-06-19T13:45:17;6.47;;;2.53;;
65613;SDS011;52283;49.292;10.572;2023-06-19T13:47:44;2.70;;;2.50;;
65613;SDS011;52283;49.292;10.572;2023-06-19T13:50:10;3.83;;;2.30;;
65613;SDS011;52283;49.292;10.572;2023-06-19T13:52:42;3.13;;;2.83;;
65613;SDS011;52283;49.292;10.572;2023-06-19T13:55:10;2.75;;;2.30;;
65613;SDS011;52283;49.292;10.572;2023-06-19T13:57:38;4.07;;;2.60;;
65613;SDS011;52283;49.292;10.572;2023-06-19T14:00:06;2.85;;;2.65;;
65613;SDS011;52283;49.292;10.572;2023-06-19T14:02:35;4.70;;;2.83;;
65613;SDS011;52283;49.292;10.572;2023-06-19T14:05:02;3.83;;;2.90;;
65613;SDS011;52283;49.292;10.572;2023-06-19T14:07:28;2.90;;;2.80;;
65613;SDS011;52283;49.292;10.572;2023-06-19T14:09:54;3.17;;;2.97;;
65613;SDS011;52283;49.292;10.572;2023-06-19T14:12:22;2.70;;;2.50;;
65613;SDS011;52283;49.292;10.572;2023-06-19T14:14:49;2.60;;;2.40;;
65613;SDS011;52283;49.292;10.572;2023-06-19T14:17:16;3.00;;;2.85;;
65613;SDS011;52283;49.292;10.572;2023-06-19T14:19:43;3.25;;;2.55;;
65613;SDS011;52283;49.292;10.572;2023-06-19T14:22:10;3.53;;;2.45;;
65613;SDS011;52283;49.292;10.572;2023-06-19T14:24:36;3.22;;;2.58;;
65613;SDS011;52283;49.292;10.572;2023-06-19T14:27:03;3.25;;;2.90;;
65613;SDS011;52283;49.292;10.572;2023-06-19T14:29:31;4.18;;;3.00;;
65613;SDS011;52283;49.292;10.572;2023-06-19T14:31:58;3.03;;;2.72;;
65613;SDS011;52283;49.292;10.572;2023-06-19T14:34:24;2.83;;;2.58;;
65613;SDS011;52283;49.292;10.572;2023-06-19T14:36:50;4.25;;;2.53;;
65613;SDS011;52283;49.292;10.572;2023-06-19T14:39:17;4.50;;;2.92;;
65613;SDS011;52283;49.292;10.572;2023-06-19T14:41:43;2.95;;;2.75;;